Greenway, Arkansas
Current Conditions -  °F | °C
As of 1:35 PM on Tuesday 21 Oct 2014 (Local Time) from K4M9 Reporting Station
Haze Haze  
Wind Chill: 23°   Ceiling: Unl
Heat Index: 23°   Visibility: 3mi
Dew Point:   Wind: 5mph
Humidity: 41%   Direction: 310°NW
Pressure: 30.08"   Gusts: NA
Location:  36.34°N, 90.22°W
Report Text: K4M9 211835Z AUTO 31004KT 3SM HZ CLR 23/09 A3008 RMK AO2
Loading
Personal Weather Stations






























Interactive Weather Map
Tropical Storm Tracking
New forecast layout! Learn more

10-Day Weather Forecast

Advertisements
Track Severe Weather on mobile